Huvudsida
METAR-TAF:

METAR-TAF

Flygplatser :

Helsingfors-Vanda flygplats

Helsingfors, Finland

latitud: 60-19N, longitud: 024-58E, höjd: 51 m

Aktuellt väderrapport

Denna rapport gjordes för 35 minuter sedan, klockan 09:20 UTC
Vind 15 kt från sydväst
Temperatur 20°C
Fuktighet 68%
Tryck 1008 hPa
Sikt 10 km eller mer
Spridda moln på en höjd av 2500 ft

METAR: EFHK 190920Z 23015KT 9999 SCT025 20/14 Q1008 NOSIG

Tid: 12:55 (09:55 UTC)

Väderprognos

Denna rapport gjordes för 1 timme och 23 minuter sedan, klockan 08:32 UTC
Prognos gäller från 19 kl. 09 UTC till 20 kl. 09 UTC
Vind 12 kt från sydväst
Sikt 10 km eller mer
Spridda moln på en höjd av 1400 ft
Blir
från 20 kl. 01 UTC till 20 kl. 03 UTC
Vind 4 kt från syd/sydost
Sannolikhet 40%
från 20 kl. 07 UTC till 20 kl. 09 UTC
Spridda moln på en höjd av 4000 ft, Cumulonimbus.
Brutna moln på en höjd av 5000 ft

TAF: EFHK 190832Z 1909/2009 23012KT 9999 SCT014 BECMG 2001/2003 15004KT PROB40 2007/2009 SCT040CB BKN050

Aktuella väderrapporter och prognoser från 4000 flygplatser (METAR- och TAF-rapporter).

De tillgängliga stationerna syns som gula och röda prickar på kartan.

För musen över prickarna för att se namnen på stationerna.

Klicka sedan för att få väderrapporter och prognoser.

För att ändra kartan: Klicka på de gröna knapparna med ett svart kors på för att zooma in; den gröna knappen med ett streck på för att zooma ut; eller på de gröna pilarna för angränsande kartor.


METAR-TAF: